Time;durP1;ratioP1;P1;durP2;ratioP2;P2;SDS_P1;SDS_P2;PMS_P1;PMS_P2;Temp;Humidity;BMP_temperature;BMP_pressure;BME280_temperature;BME280_humidity;BME280_pressure;Samples;Min_cycle;Max_cycle;Signal;HPM_P1;HPM_P2
2023/03/06 00:01:01;;;;;;;;;38.75;36.00;;;;;7.07;60.30;100382.44;5058760;28;45493;-77
2023/03/06 00:03:32;;;;;;;;;40.25;34.75;;;;;7.07;60.27;100379.84;5057059;28;46364;-79
2023/03/06 00:05:58;;;;;;;;;38.50;31.75;;;;;6.93;60.20;100353.78;5056602;28;45569;-77
2023/03/06 00:08:25;;;;;;;;;37.50;31.25;;;;;7.03;60.42;100370.50;5056568;28;45732;-79
2023/03/06 00:11:16;;;;;;;;;40.25;32.75;;;;;7.10;60.00;100374.44;5070755;28;45557;-80
2023/03/06 00:13:54;;;;;;;;;36.50;29.00;;;;;6.83;59.91;100329.22;5056542;28;47251;-79
2023/03/06 00:16:24;;;;;;;;;34.00;30.25;;;;;6.58;60.09;100307.28;5055095;28;45560;-79
2023/03/06 00:18:50;;;;;;;;;36.75;32.00;;;;;7.05;60.01;100377.31;5055106;28;45650;-78
2023/03/06 00:21:15;;;;;;;;;35.00;30.25;;;;;7.05;59.91;100379.09;5053596;28;45642;-79
2023/03/06 00:23:47;;;;;;;;;33.00;27.75;;;;;6.72;59.69;100315.09;5054738;28;47715;-78
2023/03/06 00:26:12;;;;;;;;;40.25;32.25;;;;;6.91;59.48;100356.47;5054863;28;46400;-77
2023/03/06 00:28:54;;;;;;;;;33.00;29.75;;;;;6.30;59.79;100263.00;5053442;28;45772;-78
2023/03/06 00:31:22;;;;;;;;;30.25;28.00;;;;;6.65;59.58;100323.34;5054070;28;46098;-77
2023/03/06 00:33:48;;;;;;;;;30.25;27.75;;;;;6.64;59.42;100304.28;5054701;28;46356;-79
2023/03/06 00:36:13;;;;;;;;;38.25;30.50;;;;;6.94;59.66;100351.09;5052912;28;46185;-77
2023/03/06 00:38:39;;;;;;;;;35.00;26.75;;;;;6.94;59.53;100352.84;5054429;28;45764;-78
2023/03/06 00:41:12;;;;;;;;;29.75;24.00;;;;;6.90;59.52;100347.00;5054751;28;45691;-77
2023/03/06 00:43:41;;;;;;;;;29.50;26.25;;;;;6.95;59.63;100342.34;5054555;28;45715;-80
2023/03/06 00:46:06;;;;;;;;;33.25;22.25;;;;;6.96;59.45;100348.41;5054429;28;46161;-79
2023/03/06 00:48:33;;;;;;;;;32.75;29.50;;;;;6.83;59.52;100322.25;5054074;28;45654;-76
2023/03/06 00:50:58;;;;;;;;;35.25;26.00;;;;;6.93;59.26;100331.19;5054670;28;45712;-79
2023/03/06 00:56:45;;;;;;;;;27.50;21.50;;;;;6.99;59.57;100330.81;5054016;28;45669;-78
2023/03/06 00:59:11;;;;;;;;;25.75;23.25;;;;;7.01;59.50;100333.34;5054079;28;45628;-79
2023/03/06 01:01:36;;;;;;;;;31.50;26.50;;;;;6.94;59.50;100329.41;5054654;28;45633;-77
2023/03/06 01:04:01;;;;;;;;;30.00;26.00;;;;;6.98;59.38;100333.50;5054518;28;45508;-80
2023/03/06 01:06:27;;;;;;;;;30.50;27.25;;;;;7.01;59.20;100334.16;5053724;28;45726;-78
2023/03/06 01:08:55;;;;;;;;;21.50;21.50;;;;;7.08;59.33;100345.03;5053959;28;45433;-77
2023/03/06 01:11:21;;;;;;;;;33.25;24.25;;;;;7.05;59.48;100342.63;5054802;28;45596;-76
2023/03/06 01:13:47;;;;;;;;;30.75;24.50;;;;;7.05;59.51;100346.06;5054363;28;45911;-77
2023/03/06 01:16:17;;;;;;;;;27.25;24.75;;;;;7.03;59.24;100358.34;5036103;28;46654;-79
2023/03/06 01:18:43;;;;;;;;;39.25;29.25;;;;;6.98;59.73;100355.16;5054155;28;45631;-77
2023/03/06 01:21:09;;;;;;;;;35.25;26.75;;;;;6.92;59.76;100360.75;5054381;28;45686;-78
2023/03/06 01:26:55;;;;;;;;;35.00;31.50;;;;;6.80;60.00;100334.63;5054485;28;45831;-78
2023/03/06 01:29:21;;;;;;;;;37.00;27.50;;;;;6.82;60.39;100338.78;5055316;28;45615;-79
2023/03/06 01:31:46;;;;;;;;;32.50;27.75;;;;;6.73;60.79;100335.00;5055854;28;45607;-79
2023/03/06 01:34:14;;;;;;;;;34.50;31.75;;;;;6.68;60.80;100337.03;5054975;28;46964;-77
2023/03/06 01:42:58;;;;;;;;;30.50;25.75;;;;;6.59;60.73;100321.94;5053517;28;45556;-77
2023/03/06 01:45:23;;;;;;;;;28.00;23.25;;;;;6.60;60.64;100323.63;5053518;28;46532;-78
2023/03/06 01:47:49;;;;;;;;;31.00;24.00;;;;;6.61;60.08;100325.28;5052639;28;46940;-78
2023/03/06 01:50:15;;;;;;;;;32.75;27.75;;;;;6.57;59.98;100309.97;5051840;28;45846;-77
2023/03/06 01:52:51;;;;;;;;;31.00;23.50;;;;;6.48;59.99;100295.72;5054143;28;45794;-79
2023/03/06 01:55:24;;;;;;;;;34.25;27.00;;;;;6.55;59.72;100307.44;5054146;28;45550;-78
2023/03/06 01:57:56;;;;;;;;;32.50;23.25;;;;;6.44;59.30;100294.22;5055029;28;45599;-77
2023/03/06 02:00:25;;;;;;;;;24.00;19.25;;;;;6.19;58.87;100258.44;5054127;28;45914;-77
2023/03/06 02:02:59;;;;;;;;;27.75;22.75;;;;;6.48;59.19;100311.31;5054415;28;45599;-78
2023/03/06 02:05:24;;;;;;;;;14.25;14.25;;;;;6.46;59.07;100304.56;5053913;28;45595;-76
2023/03/06 02:07:51;;;;;;;;;29.00;24.00;;;;;6.43;58.95;100305.56;5053268;28;46320;-78
2023/03/06 02:10:17;;;;;;;;;29.75;20.75;;;;;6.43;59.35;100305.56;5052851;28;46010;-78
2023/03/06 02:12:43;;;;;;;;;23.75;20.00;;;;;6.37;58.81;100303.31;5053611;28;45695;-79
2023/03/06 02:15:15;;;;;;;;;30.75;21.25;;;;;6.36;59.10;100300.81;5053174;28;46539;-77
2023/03/06 02:17:42;;;;;;;;;36.50;23.00;;;;;6.35;59.49;100302.56;5053146;28;45682;-81
2023/03/06 02:20:30;;;;;;;;;31.25;24.75;;;;;6.35;59.20;100291.34;5052781;28;45706;-78
2023/03/06 02:23:07;;;;;;;;;33.75;24.75;;;;;6.34;59.59;100287.88;5053679;28;45504;-77
2023/03/06 02:25:41;;;;;;;;;27.25;25.75;;;;;6.26;59.42;100283.13;5053485;28;45682;-81
2023/03/06 02:28:10;;;;;;;;;31.00;23.50;;;;;6.32;59.57;100285.38;5053437;28;46185;-79
2023/03/06 02:30:36;;;;;;;;;26.75;21.25;;;;;6.27;59.28;100276.16;5052900;28;45851;-79
2023/03/06 02:33:02;;;;;;;;;31.00;26.00;;;;;6.29;59.64;100282.13;5053274;28;45743;-80
2023/03/06 02:35:31;;;;;;;;;31.00;26.50;;;;;6.21;59.94;100255.72;5052866;28;45761;-79
2023/03/06 02:38:01;;;;;;;;;28.25;23.75;;;;;6.28;60.23;100270.03;5052940;28;46073;-78
2023/03/06 02:40:27;;;;;;;;;27.00;23.25;;;;;6.32;59.92;100276.72;5052456;28;45935;-78
2023/03/06 02:42:56;;;;;;;;;27.00;26.00;;;;;6.27;59.09;100261.41;5053323;28;45821;-75
2023/03/06 02:45:34;;;;;;;;;26.75;23.75;;;;;6.29;58.94;100259.56;5052668;28;46601;-78
2023/03/06 02:48:01;;;;;;;;;27.25;24.75;;;;;5.98;59.10;100218.06;5052969;28;45667;-77
2023/03/06 02:50:26;;;;;;;;;28.00;25.25;;;;;6.21;59.26;100255.72;5052793;28;45786;-76
2023/03/06 02:52:51;;;;;;;;;28.75;20.75;;;;;6.18;59.40;100253.31;5052915;28;45504;-77
2023/03/06 02:55:17;;;;;;;;;28.75;25.25;;;;;6.14;59.55;100257.03;5052656;28;45559;-77
2023/03/06 02:57:42;;;;;;;;;35.00;26.75;;;;;6.03;59.65;100236.84;5052642;28;46042;-77
2023/03/06 03:00:10;;;;;;;;;31.75;26.25;;;;;6.15;59.85;100248.28;5054913;28;45631;-78
2023/03/06 03:02:36;;;;;;;;;26.00;23.00;;;;;6.15;59.56;100248.28;5056318;28;45758;-77
2023/03/06 03:05:01;;;;;;;;;21.25;17.25;;;;;6.14;58.77;100241.41;5056206;28;45631;-78
2023/03/06 03:07:26;;;;;;;;;27.00;21.25;;;;;6.12;58.87;100245.84;5056215;28;45763;-77
2023/03/06 03:13:27;;;;;;;;;23.00;20.50;;;;;6.08;59.19;100233.97;5062466;28;45953;-78
2023/03/06 03:16:01;;;;;;;;;27.75;21.25;;;;;6.09;59.08;100236.50;5056371;28;45610;-78
2023/03/06 03:18:26;;;;;;;;;22.25;15.75;;;;;6.01;58.95;100225.69;5055714;28;45626;-76
2023/03/06 03:20:52;;;;;;;;;21.00;19.00;;;;;6.10;58.68;100234.72;5055906;28;45441;-77
2023/03/06 03:23:18;;;;;;;;;28.50;22.00;;;;;6.10;58.61;100238.13;5055937;28;45568;-78
2023/03/06 03:25:43;;;;;;;;;28.25;22.50;;;;;5.91;59.00;100208.94;5056065;28;46987;-79
2023/03/06 03:28:09;;;;;;;;;30.25;21.00;;;;;6.09;58.83;100235.66;5056401;28;45958;-76
2023/03/06 03:30:34;;;;;;;;;35.50;27.75;;;;;6.10;59.45;100243.34;5056434;28;45715;-76
2023/03/06 03:32:59;;;;;;;;;29.50;23.00;;;;;6.09;59.07;100243.44;5056306;28;45543;-76
2023/03/06 03:35:25;;;;;;;;;27.75;23.00;;;;;6.09;59.44;100240.84;5055703;28;45697;-77
2023/03/06 03:37:51;;;;;;;;;29.75;25.50;;;;;6.07;59.38;100240.09;5055631;28;45670;-76
2023/03/06 03:43:38;;;;;;;;;27.75;22.75;;;;;6.02;59.84;100219.56;5055317;28;45612;-78
2023/03/06 03:46:04;;;;;;;;;26.75;22.75;;;;;6.10;60.04;100239.94;5037869;28;46689;-79
2023/03/06 03:48:30;;;;;;;;;30.50;22.75;;;;;6.10;60.26;100219.94;5055544;28;47208;-76
2023/03/06 03:51:03;;;;;;;;;31.75;27.50;;;;;6.12;60.21;100227.66;5056278;28;45619;-76
2023/03/06 03:53:29;;;;;;;;;32.25;25.75;;;;;6.11;60.27;100223.38;5056156;28;45830;-79
2023/03/06 03:55:54;;;;;;;;;30.75;25.75;;;;;6.08;60.30;100219.22;5056310;28;46271;-78
2023/03/06 03:58:19;;;;;;;;;27.00;22.25;;;;;6.06;60.60;100218.44;5055751;28;46067;-77
2023/03/06 04:00:46;;;;;;;;;32.75;29.00;;;;;6.06;60.63;100218.44;5056270;28;45730;-78
2023/03/06 04:03:12;;;;;;;;;32.50;30.00;;;;;6.03;60.47;100212.59;5056512;28;45567;-77
2023/03/06 04:05:37;;;;;;;;;29.00;26.00;;;;;5.98;60.98;100209.44;5055965;28;45666;-80
2023/03/06 04:08:04;;;;;;;;;34.25;27.50;;;;;5.99;61.06;100217.16;5055025;28;46182;-78
2023/03/06 04:13:51;;;;;;;;;37.25;29.00;;;;;5.83;61.45;100188.56;5058904;28;45757;-79
2023/03/06 04:16:16;;;;;;;;;30.75;28.75;;;;;5.98;61.03;100212.03;5054493;28;45625;-80
2023/03/06 04:18:41;;;;;;;;;28.50;25.25;;;;;5.90;61.31;100205.50;5054747;28;45728;-79
2023/03/06 04:21:07;;;;;;;;;30.75;24.25;;;;;5.85;61.69;100193.69;5054695;28;45734;-77
2023/03/06 04:23:32;;;;;;;;;38.75;34.25;;;;;5.89;61.75;100196.03;5054657;28;45765;-80
2023/03/06 04:29:19;;;;;;;;;25.75;22.25;;;;;5.89;61.56;100200.38;5054291;28;45870;-82
2023/03/06 04:31:44;;;;;;;;;36.50;27.50;;;;;5.91;61.57;100193.34;5055017;28;45642;-78
2023/03/06 04:34:10;;;;;;;;;30.75;25.50;;;;;5.90;61.75;100194.28;5055581;28;45639;-80
2023/03/06 04:36:35;;;;;;;;;31.75;25.75;;;;;5.92;61.90;100192.44;5055251;28;45720;-78
2023/03/06 04:39:01;;;;;;;;;29.75;26.50;;;;;5.90;61.66;100192.50;5054911;28;45674;-79
2023/03/06 04:41:26;;;;;;;;;32.25;24.25;;;;;5.80;61.60;100174.91;5054465;28;45653;-77
2023/03/06 04:43:52;;;;;;;;;30.50;24.00;;;;;5.71;61.81;100167.66;5054655;28;45691;-81
2023/03/06 04:46:18;;;;;;;;;25.75;23.00;;;;;5.78;61.67;100182.78;5054152;28;45634;-81
2023/03/06 04:48:43;;;;;;;;;26.75;21.25;;;;;5.78;61.54;100193.19;5054044;28;45757;-80
2023/03/06 04:51:13;;;;;;;;;29.25;25.50;;;;;5.65;61.56;100170.59;5054612;28;45478;-80
2023/03/06 04:53:38;;;;;;;;;26.25;23.75;;;;;5.61;61.99;100167.38;5054355;28;45694;-78
2023/03/06 04:59:26;;;;;;;;;27.75;20.75;;;;;5.66;61.74;100169.69;5053825;28;45762;-79
2023/03/06 05:01:51;;;;;;;;;26.00;19.75;;;;;5.70;61.12;100184.16;5054069;28;45519;-78
2023/03/06 05:04:17;;;;;;;;;29.75;24.00;;;;;5.66;61.83;100187.88;5054347;28;45617;-81
2023/03/06 05:06:42;;;;;;;;;34.75;25.00;;;;;5.58;61.71;100177.91;5053962;28;46569;-78
2023/03/06 05:09:07;;;;;;;;;31.50;23.00;;;;;5.55;62.23;100178.09;5053487;28;46884;-78
2023/03/06 05:14:54;;;;;;;;;27.75;18.50;;;;;5.49;62.38;100157.66;5061350;27;45702;-78
2023/03/06 05:17:20;;;;;;;;;33.25;25.25;;;;;5.63;62.66;100175.88;5054212;28;45463;-79
2023/03/06 05:19:45;;;;;;;;;32.25;25.75;;;;;5.56;62.73;100164.16;5054086;28;46712;-79
2023/03/06 05:22:10;;;;;;;;;30.75;26.00;;;;;5.71;62.21;100193.66;5055368;28;46114;-79
2023/03/06 05:24:36;;;;;;;;;32.50;28.00;;;;;5.48;62.44;100143.00;5054619;28;45516;-81
2023/03/06 05:27:02;;;;;;;;;34.75;28.50;;;;;5.75;62.39;100188.19;5055095;28;45642;-82
2023/03/06 05:29:27;;;;;;;;;33.75;26.50;;;;;5.55;62.07;100140.91;5055263;28;46065;-78
2023/03/06 05:31:53;;;;;;;;;35.50;26.75;;;;;5.82;62.51;100191.28;5054847;28;45610;-79
2023/03/06 05:34:19;;;;;;;;;32.25;24.00;;;;;5.76;62.54;100174.25;5054184;28;45694;-79
2023/03/06 05:36:45;;;;;;;;;32.25;28.50;;;;;5.76;62.38;100169.06;5054715;28;45582;-79
2023/03/06 05:39:10;;;;;;;;;30.00;23.75;;;;;5.84;62.21;100185.03;5055313;28;45669;-79
2023/03/06 05:44:56;;;;;;;;;22.75;19.00;;;;;5.76;62.17;100173.44;5054244;28;45645;-80
2023/03/06 05:47:22;;;;;;;;;28.00;24.50;;;;;5.76;61.96;100173.44;5053607;28;46688;-81
2023/03/06 05:49:47;;;;;;;;;23.25;16.25;;;;;5.75;61.71;100161.34;5054032;28;46124;-80
2023/03/06 05:52:13;;;;;;;;;32.25;27.25;;;;;5.76;62.27;100169.06;5054219;28;45553;-78
2023/03/06 05:54:39;;;;;;;;;25.25;22.00;;;;;5.61;61.43;100153.53;5054078;28;45658;-80
2023/03/06 06:00:26;;;;;;;;;33.00;21.75;;;;;5.77;61.33;100162.94;5053305;28;46032;-80
2023/03/06 06:02:52;;;;;;;;;28.50;22.50;;;;;5.80;61.34;100160.16;5053789;28;45689;-80
2023/03/06 06:05:17;;;;;;;;;25.00;21.00;;;;;5.69;61.34;100139.16;5054000;28;45507;-81
2023/03/06 06:07:42;;;;;;;;;25.75;21.00;;;;;5.84;61.27;100138.25;5053302;28;46614;-80
2023/03/06 06:10:09;;;;;;;;;26.50;22.75;;;;;5.85;61.16;100126.09;5052788;28;46257;-78
2023/03/06 06:12:35;;;;;;;;;27.25;22.25;;;;;5.94;61.21;100135.97;5052748;28;45632;-76
2023/03/06 06:15:00;;;;;;;;;29.50;23.25;;;;;5.97;61.14;100141.00;5042627;28;45706;-79
2023/03/06 06:17:25;;;;;;;;;25.50;24.00;;;;;5.99;61.07;100135.72;5053040;28;45613;-77
2023/03/06 06:19:51;;;;;;;;;32.00;22.25;;;;;6.00;60.67;100126.97;5052773;28;45668;-81
2023/03/06 06:22:16;;;;;;;;;23.50;19.50;;;;;6.03;60.57;100124.19;5052942;28;45629;-78
2023/03/06 06:24:41;;;;;;;;;28.00;20.50;;;;;6.04;60.47;100126.72;5053598;28;45551;-79
2023/03/06 06:30:29;;;;;;;;;22.75;18.75;;;;;6.01;60.36;100137.28;5053759;28;45547;-82
2023/03/06 06:32:55;;;;;;;;;28.50;21.25;;;;;5.97;60.43;100137.56;5055692;28;45587;-81
2023/03/06 06:35:20;;;;;;;;;32.75;23.25;;;;;6.00;60.71;100151.19;5057286;28;45687;-81
2023/03/06 06:37:46;;;;;;;;;26.75;21.50;;;;;5.98;60.61;100147.88;5057151;28;46267;-75
2023/03/06 06:40:11;;;;;;;;;30.25;25.50;;;;;5.63;60.43;100094.50;5056916;28;45749;-79
2023/03/06 06:45:58;;;;;;;;;29.50;22.50;;;;;5.87;60.62;100156.31;5056716;28;45571;-80
2023/03/06 06:48:24;;;;;;;;;26.00;23.25;;;;;5.94;60.41;100161.16;5056307;28;45629;-82
2023/03/06 06:50:57;;;;;;;;;29.00;22.67;;;;;5.94;60.26;100169.75;5056429;28;46150;-81
2023/03/06 06:53:23;;;;;;;;;32.00;26.00;;;;;5.89;60.38;100180.44;5057015;28;45895;-80
2023/03/06 06:55:48;;;;;;;;;26.25;24.50;;;;;5.94;60.59;100180.16;5055951;28;45707;-75
2023/03/06 06:58:14;;;;;;;;;26.25;23.50;;;;;5.86;60.87;100182.34;5055689;28;45495;-74
2023/03/06 07:00:39;;;;;;;;;18.75;15.25;;;;;5.89;60.84;100184.78;5054435;28;47313;-75
2023/03/06 07:03:05;;;;;;;;;26.50;24.75;;;;;5.85;60.90;100175.47;5055160;28;45606;-73
2023/03/06 07:05:30;;;;;;;;;26.00;22.50;;;;;5.87;61.03;100176.28;5056119;28;45915;-74
2023/03/06 07:07:55;;;;;;;;;20.50;19.00;;;;;5.83;61.12;100165.16;5055496;28;47385;-74
2023/03/06 07:10:21;;;;;;;;;25.00;21.75;;;;;5.85;60.64;100181.50;5054845;28;47381;-74
2023/03/06 07:16:07;;;;;;;;;33.25;26.50;;;;;5.83;61.09;100188.56;5063206;27;45708;-73
2023/03/06 07:18:33;;;;;;;;;25.25;19.75;;;;;5.86;61.37;100175.41;5055526;28;45627;-74
2023/03/06 07:20:58;;;;;;;;;33.00;25.25;;;;;5.88;61.36;100176.16;5056819;28;46551;-73
2023/03/06 07:23:25;;;;;;;;;31.00;24.50;;;;;5.89;60.75;100174.41;5056691;28;45828;-73
2023/03/06 07:25:51;;;;;;;;;29.00;22.75;;;;;5.89;60.62;100171.78;5055670;28;45585;-74
2023/03/06 07:31:38;;;;;;;;;21.25;19.75;;;;;5.74;60.94;100178.72;5055504;28;46107;-74
2023/03/06 07:34:03;;;;;;;;;22.25;16.25;;;;;5.68;61.09;100168.66;5037361;28;45502;-74
2023/03/06 07:36:29;;;;;;;;;26.75;19.75;;;;;5.62;61.47;100165.56;5056203;28;45565;-73
2023/03/06 07:38:54;;;;;;;;;29.00;22.75;;;;;5.64;61.00;100200.94;5056027;28;46606;-75
2023/03/06 07:41:19;;;;;;;;;24.25;21.25;;;;;5.60;61.09;100175.25;5055735;28;45720;-74
2023/03/06 07:47:06;;;;;;;;;18.25;14.75;;;;;5.62;61.56;100171.59;5054492;28;45658;-74
2023/03/06 07:49:33;;;;;;;;;25.25;20.50;;;;;5.68;61.99;100173.03;5054734;28;46448;-73
2023/03/06 07:52:00;;;;;;;;;22.00;18.75;;;;;5.68;61.41;100176.47;5055002;28;46142;-74
2023/03/06 07:54:25;;;;;;;;;24.25;21.00;;;;;5.69;61.74;100167.75;5055354;28;45794;-73
2023/03/06 07:56:51;;;;;;;;;19.25;18.00;;;;;5.72;61.83;100179.75;5055002;28;45709;-74
2023/03/06 07:59:17;;;;;;;;;21.50;18.50;;;;;5.71;61.51;100175.47;5054753;28;46414;-73
2023/03/06 08:01:43;;;;;;;;;22.25;21.25;;;;;5.76;61.55;100182.06;5055601;28;46471;-73
2023/03/06 08:04:08;;;;;;;;;28.75;23.00;;;;;5.78;61.80;100182.78;5056033;28;45591;-75
2023/03/06 08:06:35;;;;;;;;;22.75;17.25;;;;;5.75;61.86;100172.59;5056031;28;45689;-75
2023/03/06 08:09:00;;;;;;;;;21.00;16.25;;;;;5.76;61.79;100181.22;5054977;28;46340;-75
2023/03/06 08:11:29;;;;;;;;;24.50;21.00;;;;;5.72;62.03;100177.13;5055115;28;46119;-75
2023/03/06 08:17:16;;;;;;;;;25.00;17.75;;;;;5.74;62.33;100183.91;5063031;28;45716;-74
2023/03/06 08:19:41;;;;;;;;;27.50;18.75;;;;;5.75;62.15;100176.94;5036341;28;48775;-75
2023/03/06 08:22:07;;;;;;;;;28.75;19.25;;;;;5.79;62.58;100181.03;5055298;28;45626;-74
2023/03/06 08:24:33;;;;;;;;;24.00;19.00;;;;;5.82;62.13;100183.47;5055039;28;45504;-74
2023/03/06 08:26:59;;;;;;;;;24.00;21.00;;;;;5.76;62.46;100166.47;5054804;28;45653;-75
2023/03/06 08:32:45;;;;;;;;;22.50;21.00;;;;;5.79;62.54;100183.63;5054300;28;45751;-75
2023/03/06 08:35:11;;;;;;;;;29.75;24.25;;;;;5.88;62.68;100206.53;5054275;28;45689;-75
2023/03/06 08:37:36;;;;;;;;;21.00;18.50;;;;;5.86;62.56;100191.00;5036519;28;45841;-75
2023/03/06 08:40:03;;;;;;;;;23.50;18.50;;;;;5.93;62.46;100201.06;5054679;28;45636;-74
2023/03/06 08:42:29;;;;;;;;;26.00;19.00;;;;;5.91;62.01;100201.16;5054644;28;46552;-73
2023/03/06 08:44:54;;;;;;;;;22.75;20.25;;;;;5.95;62.63;100194.84;5054234;28;45681;-75
2023/03/06 08:47:20;;;;;;;;;19.00;15.25;;;;;5.94;62.42;100195.75;5036529;28;45645;-72
2023/03/06 08:49:46;;;;;;;;;21.75;18.50;;;;;6.03;62.32;100204.81;5053888;28;46244;-74
2023/03/06 08:52:12;;;;;;;;;23.00;20.00;;;;;5.97;62.52;100193.00;5054590;28;46220;-75
2023/03/06 08:54:38;;;;;;;;;25.75;19.25;;;;;6.02;62.15;100195.31;5054456;28;45841;-74
2023/03/06 08:57:03;;;;;;;;;23.00;18.75;;;;;6.02;62.17;100196.16;5053849;28;45610;-75
2023/03/06 09:02:50;;;;;;;;;23.25;21.50;;;;;6.13;62.49;100208.53;5053936;28;45816;-75
2023/03/06 09:05:16;;;;;;;;;22.25;17.00;;;;;6.19;62.43;100205.56;5054145;28;45635;-75
2023/03/06 09:07:41;;;;;;;;;29.25;21.75;;;;;6.21;62.18;100201.94;5053856;28;45584;-75
2023/03/06 09:10:07;;;;;;;;;25.00;20.75;;;;;6.26;61.81;100206.88;5053703;28;47186;-74
2023/03/06 09:12:32;;;;;;;;;23.50;20.25;;;;;6.26;62.25;100215.50;5053576;28;47880;-74
2023/03/06 09:14:58;;;;;;;;;26.00;21.00;;;;;6.29;62.36;100209.28;5053343;28;45684;-74
2023/03/06 09:17:24;;;;;;;;;22.00;19.25;;;;;6.33;62.27;100219.41;5053695;28;45597;-75
2023/03/06 09:19:51;;;;;;;;;27.50;22.25;;;;;6.34;62.11;100207.25;5053493;28;45582;-75
2023/03/06 09:22:16;;;;;;;;;21.25;20.00;;;;;6.36;62.22;100212.38;5053473;28;46392;-74
2023/03/06 09:24:41;;;;;;;;;20.75;16.00;;;;;6.38;61.82;100219.13;5053594;28;45606;-73
2023/03/06 09:27:07;;;;;;;;;21.00;18.25;;;;;6.33;62.03;100200.38;5053635;28;45727;-73
2023/03/06 09:29:32;;;;;;;;;22.50;20.00;;;;;6.35;62.30;100208.09;5053158;28;45504;-74
2023/03/06 09:31:57;;;;;;;;;27.75;17.00;;;;;6.45;61.89;100209.19;5053212;28;46077;-76
2023/03/06 09:34:22;;;;;;;;;25.75;20.25;;;;;6.52;62.34;100218.31;5053149;28;45574;-75
2023/03/06 09:36:48;;;;;;;;;21.75;16.00;;;;;6.57;62.04;100216.28;5053749;28;45440;-74
2023/03/06 09:39:13;;;;;;;;;22.50;19.50;;;;;6.60;61.77;100213.47;5053018;28;46456;-75
2023/03/06 09:41:40;;;;;;;;;16.50;13.00;;;;;6.60;61.88;100214.31;5053482;28;45893;-75
2023/03/06 09:44:10;;;;;;;;;24.75;20.00;;;;;6.67;61.71;100227.78;5053322;28;45866;-74
2023/03/06 09:46:41;;;;;;;;;24.50;21.75;;;;;6.70;61.63;100220.63;5053867;28;45610;-74
2023/03/06 09:49:28;;;;;;;;;33.00;22.75;;;;;6.77;61.57;100222.84;5053069;28;45608;-75
2023/03/06 09:51:59;;;;;;;;;28.00;21.25;;;;;6.81;61.43;100219.97;5053280;28;47213;-74
2023/03/06 09:54:42;;;;;;;;;27.25;23.00;;;;;6.75;61.35;100208.16;5053507;28;45665;-74
2023/03/06 09:57:19;;;;;;;;;31.50;25.50;;;;;6.95;61.29;100224.31;5053539;28;45630;-76
2023/03/06 09:59:48;;;;;;;;;32.75;23.50;;;;;6.99;60.99;100218.81;5052470;28;46405;-74
2023/03/06 10:02:21;;;;;;;;;24.75;20.25;;;;;7.00;60.86;100214.47;5052984;28;46114;-74
2023/03/06 10:04:58;;;;;;;;;22.25;19.75;;;;;6.98;60.93;100205.91;5053124;28;46003;-74
2023/03/06 10:07:32;;;;;;;;;23.25;20.50;;;;;7.02;60.47;100205.59;5053336;28;45565;-74
2023/03/06 10:10:05;;;;;;;;;23.75;21.00;;;;;7.06;60.47;100216.69;5052220;28;46661;-73
2023/03/06 10:12:43;;;;;;;;;24.50;19.75;;;;;7.07;60.05;100202.72;5053391;28;45896;-74
2023/03/06 10:15:21;;;;;;;;;19.00;17.50;;;;;7.15;59.28;100201.31;5052350;28;45614;-75
2023/03/06 10:17:46;;;;;;;;;15.50;11.50;;;;;7.23;59.17;100208.66;5052759;28;45632;-74
2023/03/06 10:20:35;;;;;;;;;29.50;21.75;;;;;7.33;58.92;100208.88;5053346;28;45592;-73
2023/03/06 10:23:22;;;;;;;;;25.25;20.25;;;;;7.38;58.61;100206.81;5053414;28;46048;-75
2023/03/06 10:26:02;;;;;;;;;27.25;23.25;;;;;7.41;58.24;100202.22;5053490;28;45562;-74
2023/03/06 10:31:57;;;;;;;;;19.00;16.75;;;;;7.44;56.75;100202.06;5052536;28;45924;-74
2023/03/06 10:34:29;;;;;;;;;23.50;17.50;;;;;7.44;56.27;100182.97;5052786;28;45577;-73
2023/03/06 10:36:57;;;;;;;;;24.25;20.25;;;;;7.57;56.62;100195.09;5052622;28;45843;-75
2023/03/06 10:39:22;;;;;;;;;14.25;12.25;;;;;7.61;55.16;100192.31;5052725;28;45700;-75
2023/03/06 10:41:49;;;;;;;;;14.75;13.50;;;;;7.71;55.05;100193.38;5052588;28;45586;-74
2023/03/06 10:47:39;;;;;;;;;14.00;12.00;;;;;7.92;54.00;100198.00;5052357;28;45864;-75
2023/03/06 10:50:22;;;;;;;;;25.75;16.50;;;;;7.99;54.60;100182.75;5052677;28;45483;-75
2023/03/06 10:53:04;;;;;;;;;21.50;17.00;;;;;8.03;54.47;100192.06;5052839;28;46349;-74
2023/03/06 10:55:33;;;;;;;;;19.25;16.00;;;;;8.10;54.43;100193.28;5052451;28;46007;-74
2023/03/06 10:58:34;;;;;;;;;18.50;16.50;;;;;8.21;53.66;100200.41;5033990;28;45790;-74
2023/03/06 11:04:31;;;;;;;;;18.00;16.75;;;;;8.28;53.35;100188.59;4970788;28;45546;-74
2023/03/06 11:07:07;;;;;;;;;16.00;16.00;;;;;8.27;53.08;100187.78;4954437;28;48554;-75
2023/03/06 11:09:34;;;;;;;;;16.25;13.75;;;;;8.24;53.24;100171.50;4970677;28;45533;-74
2023/03/06 11:12:21;;;;;;;;;18.50;16.25;;;;;8.26;52.25;100173.03;4971174;28;45635;-74
2023/03/06 11:15:05;;;;;;;;;12.00;10.75;;;;;8.30;51.94;100174.56;4970387;28;46337;-74
2023/03/06 11:17:32;;;;;;;;;14.25;11.00;;;;;8.34;51.02;100173.41;4982618;28;46270;-73
2023/03/06 11:20:25;;;;;;;;;14.00;12.50;;;;;8.41;50.88;100169.44;4991097;28;45804;-75
2023/03/06 11:23:14;;;;;;;;;16.75;12.75;;;;;8.50;50.84;100174.94;4965089;28;45939;-74
2023/03/06 11:25:47;;;;;;;;;14.00;13.00;;;;;8.43;50.70;100164.94;4915977;28;45707;-75
2023/03/06 11:28:22;;;;;;;;;11.00;9.75;;;;;8.54;50.44;100176.41;4915471;28;46276;-75
2023/03/06 11:31:00;;;;;;;;;13.50;13.00;;;;;8.58;50.28;100170.88;4915898;28;45681;-74
2023/03/06 11:33:38;;;;;;;;;14.25;11.25;;;;;8.61;50.43;100172.44;4915856;28;45523;-75
2023/03/06 11:36:13;;;;;;;;;18.25;12.00;;;;;8.57;50.23;100173.59;4988212;28;45691;-74
2023/03/06 11:38:47;;;;;;;;;12.50;12.00;;;;;8.55;50.05;100181.53;4993157;28;45680;-75
2023/03/06 11:41:19;;;;;;;;;19.50;14.00;;;;;8.49;50.13;100160.22;4993505;28;45845;-75
2023/03/06 11:43:53;;;;;;;;;15.75;14.25;;;;;8.55;50.14;100170.25;4993493;28;45754;-74
2023/03/06 11:46:27;;;;;;;;;19.00;14.25;;;;;8.61;50.40;100167.22;4992904;28;46680;-75
2023/03/06 11:49:04;;;;;;;;;13.50;11.50;;;;;8.61;50.28;100154.16;4992837;28;46121;-74
2023/03/06 11:51:36;;;;;;;;;20.00;17.25;;;;;8.65;50.64;100156.44;4993385;28;45630;-75
2023/03/06 11:54:02;;;;;;;;;17.00;13.75;;;;;8.76;50.40;100156.50;4993170;28;45956;-74
2023/03/06 11:56:34;;;;;;;;;18.00;16.00;;;;;8.83;50.40;100172.59;4993021;28;46609;-73
2023/03/06 11:59:24;;;;;;;;;16.00;14.75;;;;;8.88;50.37;100148.75;4992430;28;46408;-74
2023/03/06 12:02:13;;;;;;;;;16.00;14.25;;;;;8.94;50.55;100158.75;5003035;28;45955;-74
2023/03/06 12:04:47;;;;;;;;;16.75;15.50;;;;;8.94;50.13;100150.94;5075703;28;45519;-74
2023/03/06 12:07:34;;;;;;;;;18.25;11.50;;;;;8.89;49.91;100158.25;5056790;28;48651;-75
2023/03/06 12:10:18;;;;;;;;;10.25;8.50;;;;;8.85;50.13;100149.81;5075418;28;46647;-75
2023/03/06 12:13:09;;;;;;;;;17.25;14.00;;;;;8.80;50.28;100154.50;5075046;28;45561;-75
2023/03/06 12:19:20;;;;;;;;;18.75;15.50;;;;;8.73;50.52;100129.78;5058747;27;45716;-74
2023/03/06 12:21:59;;;;;;;;;24.50;18.00;;;;;8.69;50.35;100126.53;5054656;28;46226;-74
2023/03/06 12:24:46;;;;;;;;;18.00;15.75;;;;;8.74;50.63;100134.06;5055061;28;45587;-74
2023/03/06 12:27:14;;;;;;;;;15.75;12.25;;;;;8.71;50.65;100135.13;5055500;28;45530;-74
2023/03/06 12:29:58;;;;;;;;;25.50;16.00;;;;;8.70;50.65;100130.81;5054583;28;46873;-74
2023/03/06 12:36:03;;;;;;;;;15.00;14.00;;;;;8.58;50.82;100144.78;5054125;28;45680;-74
2023/03/06 12:38:40;;;;;;;;;18.00;14.50;;;;;8.43;51.28;100117.09;5035729;28;45999;-74
2023/03/06 12:41:33;;;;;;;;;14.50;13.75;;;;;8.46;51.49;100134.34;5056025;28;46602;-74
2023/03/06 12:44:20;;;;;;;;;20.50;16.25;;;;;8.39;51.54;100121.72;5057450;28;46138;-73
2023/03/06 12:46:53;;;;;;;;;18.75;16.25;;;;;8.36;51.95;100121.09;5039027;28;45806;-73
2023/03/06 12:49:30;;;;;;;;;20.75;17.50;;;;;8.34;51.85;100131.66;5054336;28;45525;-75